Aviation Digital Data Service (ADDS)

Output produced by METARs form (1448 UTC 10 August 2022)
found at http://www.aviationweather.gov/metar/data/
 
Forecast for: ZSFZ (FUZHOU , CN)
Text: TAF ZSFZ 100912Z 1012/1112 17003MPS 8000 SCT020 TX35/1106Z TN27/1021Z
Forecast period: 1200 UTC 10 August 2022 to 0400 UTC 11 August 2022
Forecast type: FROM: standard forecast or significant change
Winds: from the S (170 degrees) at 7 MPH (6 knots; 3.1 m/s)
Visibility: 5 miles (8 km)
Ceiling: at least 12,000 feet AGL
Clouds: scattered clouds at 2000 feet AGL
Weather: no significant weather forecast for this period
Text: BECMG 1104/1105 19008MPS
Forecast period: 0400 to 1200 UTC 11 August 2022
Forecast type: BECOMING: Conditions expected to become as follows by 0500 UTC 11 August 2022
Winds: from the S (190 degrees) at 18 MPH (16 knots; 8.2 m/s)
Visibility: 5 miles (8 km)
Ceiling: at least 12,000 feet AGL
Clouds: scattered clouds at 2000 feet AGL
Weather: no significant weather forecast for this period